Time;durP1;ratioP1;P1;durP2;ratioP2;P2;SDS_P1;SDS_P2;PMS_P1;PMS_P2;Temp;Humidity;BMP_temperature;BMP_pressure;BME280_temperature;BME280_humidity;BME280_pressure;Samples;Min_cycle;Max_cycle;Signal;HPM_P1;HPM_P2
2021/01/21 00:01:20;;;;;;;38.93;14.67;;;;;;;2.17;100.00;99524.75;10400039;28;20208;-56
2021/01/21 00:06:21;;;;;;;34.40;14.37;;;;;;;2.10;100.00;99528.53;10413719;28;20181;-56
2021/01/21 00:11:21;;;;;;;35.57;14.00;;;;;;;2.04;100.00;99513.03;10412981;28;20171;-56
2021/01/21 00:16:21;;;;;;;34.50;14.53;;;;;;;1.97;100.00;99516.81;10411075;28;20267;-56
2021/01/21 00:21:22;;;;;;;35.13;15.07;;;;;;;1.65;100.00;99471.69;10395956;28;20228;-56
2021/01/21 00:26:22;;;;;;;34.83;14.87;;;;;;;1.81;100.00;99514.81;10408781;28;20234;-56
2021/01/21 00:31:23;;;;;;;36.53;15.33;;;;;;;1.75;100.00;99522.13;10412193;28;20531;-56
2021/01/21 00:36:23;;;;;;;33.33;15.20;;;;;;;1.69;100.00;99522.38;10411898;28;20172;-56
2021/01/21 00:41:24;;;;;;;45.13;15.73;;;;;;;1.68;100.00;99523.31;10401504;28;20204;-55
2021/01/21 00:46:24;;;;;;;37.33;15.70;;;;;;;1.66;100.00;99523.38;10399698;28;20260;-56
2021/01/21 00:51:26;;;;;;;42.90;16.43;;;;;;;1.60;100.00;99522.75;10411391;28;20226;-56
2021/01/21 00:56:27;;;;;;;46.80;17.53;;;;;;;1.59;100.00;99516.63;10411460;28;20172;-56
2021/01/21 01:01:28;;;;;;;47.37;17.37;;;;;;;1.60;100.00;99522.75;10409184;28;20369;-56
2021/01/21 01:06:29;;;;;;;49.50;17.77;;;;;;;1.53;100.00;99513.41;10395257;28;20204;-55
2021/01/21 01:11:29;;;;;;;38.53;16.87;;;;;;;1.61;100.00;99525.31;10407134;28;20971;-56
2021/01/21 01:16:29;;;;;;;46.87;18.00;;;;;;;1.59;100.00;99521.88;10410349;28;20311;-56
2021/01/21 01:21:30;;;;;;;40.83;17.03;;;;;;;1.56;100.00;99516.78;10409978;28;20225;-57
2021/01/21 01:26:30;;;;;;;53.50;19.10;;;;;;;1.48;100.00;99512.72;10399770;28;20176;-56
2021/01/21 01:31:31;;;;;;;43.70;17.20;;;;;;;1.50;100.00;99527.53;10398278;28;20315;-56
2021/01/21 01:36:31;;;;;;;49.57;18.47;;;;;;;1.46;100.00;99520.66;10410336;28;20200;-56
2021/01/21 01:41:32;;;;;;;55.63;18.47;;;;;;;1.47;100.00;99527.63;10409450;28;20772;-56
2021/01/21 01:46:32;;;;;;;57.63;18.57;;;;;;;1.47;100.00;99517.13;10407497;28;20255;-56
2021/01/21 01:51:33;;;;;;;47.67;19.60;;;;;;;1.41;100.00;99510.34;10393159;28;20176;-57
2021/01/21 01:56:34;;;;;;;54.30;19.73;;;;;;;1.40;100.00;99505.16;10405447;28;20177;-57
2021/01/21 02:01:34;;;;;;;48.33;19.53;;;;;;;1.41;100.00;99506.88;10409098;28;20273;-56
2021/01/21 02:06:35;;;;;;;53.10;20.53;;;;;;;1.47;100.00;99508.38;10408109;28;20177;-57
2021/01/21 02:12:06;;;;;;;58.27;21.23;;;;;;;1.50;100.00;99509.13;10397401;28;20743;-56
2021/01/21 02:17:08;;;;;;;57.90;21.80;;;;;;;1.47;100.00;99511.88;10412189;28;20196;-56
2021/01/21 02:22:33;;;;;;;52.97;21.20;;;;;;;1.47;100.00;99511.88;10406541;28;20255;-56
2021/01/21 02:27:45;;;;;;;55.07;19.70;;;;;;;1.40;100.00;99506.00;10408382;28;20192;-55
2021/01/21 02:33:08;;;;;;;51.07;19.83;;;;;;;1.34;100.00;99500.13;10401094;28;20200;-56
2021/01/21 02:38:08;;;;;;;46.73;18.83;;;;;;;1.28;100.00;99489.88;10393342;28;20192;-56
2021/01/21 02:43:10;;;;;;;54.57;19.33;;;;;;;1.24;100.00;99494.38;10406722;28;20262;-56
2021/01/21 02:48:10;;;;;;;51.23;19.53;;;;;;;1.22;100.00;99498.84;10407462;28;20177;-57
2021/01/21 02:53:11;;;;;;;60.77;20.67;;;;;;;1.17;100.00;99498.19;10407663;28;20180;-57
2021/01/21 02:58:31;;;;;;;49.77;20.37;;;;;;;1.18;100.00;99501.66;10391710;28;20554;-58
2021/01/21 03:03:32;;;;;;;51.33;20.23;;;;;;;1.12;100.00;99494.00;10400592;28;20214;-56
2021/01/21 03:08:33;;;;;;;56.37;19.97;;;;;;;1.08;100.00;99498.56;10404674;28;20603;-57
2021/01/21 03:13:34;;;;;;;59.50;21.03;;;;;;;1.05;100.00;99494.25;10406645;28;20172;-56
2021/01/21 03:18:34;;;;;;;56.60;21.40;;;;;;;1.05;100.00;99494.25;10396729;28;20184;-56
2021/01/21 03:23:44;;;;;;;57.63;21.17;;;;;;;1.04;100.00;99496.94;10392950;28;20228;-57
2021/01/21 03:28:44;;;;;;;57.00;22.50;;;;;;;1.03;100.00;99496.09;10406009;28;20215;-57
2021/01/21 03:33:44;;;;;;;54.27;22.13;;;;;;;1.04;100.00;99487.28;10406559;28;20912;-56
2021/01/21 03:38:45;;;;;;;62.63;21.57;;;;;;;1.03;100.00;99495.22;10404849;28;20684;-59
2021/01/21 03:43:45;;;;;;;65.77;23.37;;;;;;;1.09;100.00;99501.09;10389257;28;20216;-57
2021/01/21 03:48:46;;;;;;;61.50;23.03;;;;;;;1.16;100.00;99503.50;10401916;28;20176;-57
2021/01/21 03:53:48;;;;;;;70.60;23.70;;;;;;;1.21;100.00;99498.94;10406026;28;20179;-56
2021/01/21 03:58:49;;;;;;;65.83;24.23;;;;;;;1.22;100.00;99505.88;10405548;28;20272;-57
2021/01/21 04:03:50;;;;;;;68.03;24.63;;;;;;;1.21;100.00;99512.06;10395981;28;20270;-57
2021/01/21 04:08:51;;;;;;;69.40;24.27;;;;;;;1.17;100.00;99502.56;10393717;28;20184;-56
2021/01/21 04:13:51;;;;;;;70.67;24.10;;;;;;;1.18;100.00;99509.56;10405910;28;20165;-56
2021/01/21 04:18:51;;;;;;;60.40;23.23;;;;;;;1.14;100.00;99507.94;10405077;28;20487;-56
2021/01/21 04:23:54;;;;;;;63.10;24.00;;;;;;;1.17;100.00;99497.31;10402445;28;20220;-57
2021/01/21 04:28:55;;;;;;;63.63;22.17;;;;;;;1.16;100.00;99492.97;10391227;28;20184;-56
2021/01/21 04:33:55;;;;;;;76.70;24.37;;;;;;;1.18;100.00;99489.38;10408268;28;20177;-56
2021/01/21 04:38:56;;;;;;;69.10;24.87;;;;;;;1.18;100.00;99488.53;10412804;28;20242;-57
2021/01/21 04:43:56;;;;;;;61.07;23.40;;;;;;;1.17;100.00;99481.56;10412507;28;20291;-56
2021/01/21 04:48:58;;;;;;;73.23;23.90;;;;;;;1.23;100.00;99491.81;10401457;28;20263;-57
2021/01/21 04:53:59;;;;;;;71.07;24.47;;;;;;;1.29;100.00;99486.34;10398599;28;20219;-56
2021/01/21 04:59:02;;;;;;;62.03;23.20;;;;;;;1.34;100.00;99479.09;10409934;28;20571;-57
2021/01/21 05:04:04;;;;;;;65.53;24.90;;;;;;;1.49;100.00;99494.25;10410797;28;20757;-57
2021/01/21 05:09:05;;;;;;;65.67;23.93;;;;;;;1.60;100.00;99493.81;10408568;28;20612;-57
2021/01/21 05:14:05;;;;;;;77.03;24.70;;;;;;;1.70;100.00;99500.41;10394893;28;20207;-57
2021/01/21 05:19:05;;;;;;;57.03;22.40;;;;;;;1.79;100.00;99507.94;10407052;28;20587;-57
2021/01/21 05:24:10;;;;;;;58.47;23.80;;;;;;;1.91;100.00;99517.94;10409964;28;20836;-56
2021/01/21 05:29:11;;;;;;;69.97;24.60;;;;;;;2.04;100.00;99508.63;10408897;28;20517;-57
2021/01/21 05:34:16;;;;;;;82.03;24.23;;;;;;;2.13;100.00;99510.84;10398911;28;20180;-57
2021/01/21 05:39:17;;;;;;;86.13;25.80;;;;;;;2.13;100.00;99491.56;10397454;28;20169;-56
2021/01/21 05:44:17;;;;;;;68.43;23.07;;;;;;;2.26;100.00;99500.66;10410342;28;20230;-57
2021/01/21 05:49:18;;;;;;;55.33;24.27;;;;;;;2.23;100.00;99498.16;10409841;28;20642;-57
2021/01/21 05:54:18;;;;;;;61.37;22.83;;;;;;;2.30;100.00;99511.88;10406324;28;20598;-57
2021/01/21 05:59:20;;;;;;;62.13;23.07;;;;;;;2.35;100.00;99508.16;10392162;28;20254;-57
2021/01/21 06:04:27;;;;;;;60.93;21.73;;;;;;;2.43;100.00;99511.28;10404270;28;20207;-57
2021/01/21 06:09:28;;;;;;;63.03;22.00;;;;;;;2.53;100.00;99517.03;10408287;28;20719;-57
2021/01/21 06:14:29;;;;;;;56.73;21.13;;;;;;;2.60;100.00;99517.59;10408613;28;20184;-57
2021/01/21 06:19:29;;;;;;;66.97;22.07;;;;;;;2.68;100.00;99516.31;10388314;28;20200;-58
2021/01/21 06:24:30;;;;;;;65.37;22.73;;;;;;;2.81;100.00;99516.63;10356604;28;20697;-58
2021/01/21 06:29:33;;;;;;;64.03;24.63;;;;;;;2.87;100.00;99524.25;10366155;28;20174;-57
2021/01/21 06:34:36;;;;;;;59.37;22.37;;;;;;;2.93;100.00;99531.88;10366814;28;20306;-57
2021/01/21 06:40:08;;;;;;;73.30;24.50;;;;;;;2.96;100.00;99531.72;10372035;28;20192;-57
2021/01/21 06:45:08;;;;;;;62.97;23.47;;;;;;;2.99;100.00;99533.38;10365085;28;20196;-59
2021/01/21 06:50:09;;;;;;;64.73;22.40;;;;;;;3.00;100.00;99537.72;10377133;28;20709;-58
2021/01/21 06:55:11;;;;;;;56.30;23.80;;;;;;;3.01;100.00;99539.44;10378791;28;20754;-58
2021/01/21 07:00:12;;;;;;;55.83;22.43;;;;;;;3.05;100.00;99544.47;10377144;28;20185;-59
2021/01/21 07:05:21;;;;;;;57.10;22.10;;;;;;;3.04;100.00;99540.13;10380937;28;20216;-59
2021/01/21 07:10:36;;;;;;;66.57;24.47;;;;;;;3.05;100.00;99535.72;10379021;28;20235;-58
2021/01/21 07:15:44;;;;;;;70.37;24.07;;;;;;;3.02;100.00;99534.06;10377334;28;20250;-58
2021/01/21 07:20:59;;;;;;;75.00;27.87;;;;;;;2.99;100.00;99543.91;10360266;28;21195;-58
2021/01/21 07:26:19;;;;;;;71.27;27.47;;;;;;;2.88;100.00;99550.53;10373438;28;20307;-59
2021/01/21 07:31:19;;;;;;;103.47;44.40;;;;;;;2.83;100.00;99547.25;10372927;28;20643;-60
2021/01/21 07:36:30;;;;;;;95.73;34.97;;;;;;;2.80;100.00;99538.63;10378617;28;20180;-61
2021/01/21 07:41:42;;;;;;;102.70;32.40;;;;;;;2.73;100.00;99534.56;10365619;28;21022;-59
2021/01/21 07:46:43;;;;;;;82.33;30.97;;;;;;;2.68;100.00;99531.25;10369090;28;20189;-59
2021/01/21 07:51:43;;;;;;;87.80;31.53;;;;;;;2.66;100.00;99525.19;10371439;28;20185;-61
2021/01/21 07:56:44;;;;;;;87.50;32.10;;;;;;;2.66;100.00;99528.69;10377047;28;20188;-58
2021/01/21 08:02:00;;;;;;;92.03;33.70;;;;;;;2.56;100.00;99513.38;10371873;28;20208;-59
2021/01/21 08:07:01;;;;;;;99.70;39.77;;;;;;;2.60;100.00;99522.84;10369099;28;20184;-59
2021/01/21 08:12:01;;;;;;;91.87;32.13;;;;;;;2.67;100.00;99524.28;10384264;28;20176;-63
2021/01/21 08:17:05;;;;;;;112.90;37.50;;;;;;;2.75;100.00;99528.31;10382379;28;20212;-59
2021/01/21 08:22:08;;;;;;;96.80;34.50;;;;;;;2.87;100.00;99516.34;10386068;28;20244;-61
2021/01/21 08:27:09;;;;;;;95.70;33.80;;;;;;;3.00;100.00;99506.09;10371886;28;20262;-61
2021/01/21 08:32:09;;;;;;;177.30;83.23;;;;;;;3.13;100.00;99512.50;10378306;28;20228;-60
2021/01/21 08:37:10;;;;;;;96.60;36.87;;;;;;;3.25;100.00;99511.94;10382717;28;20192;-60
2021/01/21 08:42:10;;;;;;;120.73;44.80;;;;;;;3.42;100.00;99514.59;10384170;28;20287;-59
2021/01/21 08:47:11;;;;;;;102.10;38.23;;;;;;;3.67;100.00;99516.91;10375680;28;20282;-58
2021/01/21 08:52:11;;;;;;;89.07;31.63;;;;;;;4.08;100.00;99514.00;10369495;28;20196;-59
2021/01/21 08:57:14;;;;;;;83.53;31.23;;;;;;;4.56;100.00;99514.13;10379227;28;20237;-59
2021/01/21 09:02:15;;;;;;;93.77;34.23;;;;;;;5.03;100.00;99511.56;10382381;28;20312;-58
2021/01/21 09:07:23;;;;;;;75.23;42.73;;;;;;;5.44;100.00;99526.94;10379288;28;20442;-63
2021/01/21 09:12:24;;;;;;;80.73;34.57;;;;;;;5.63;100.00;99516.19;10375144;28;20192;-65
2021/01/21 09:17:25;;;;;;;73.73;31.50;;;;;;;5.80;100.00;99513.41;10370717;28;20777;-60
2021/01/21 09:22:37;;;;;;;73.37;29.93;;;;;;;5.99;100.00;99507.94;10384444;28;20236;-63
2021/01/21 09:27:38;;;;;;;42.10;20.33;;;;;;;6.28;100.00;99511.53;10376448;28;20626;-63
2021/01/21 09:32:43;;;;;;;45.87;21.13;;;;;;;6.61;100.00;99509.50;10379251;28;20258;-69
2021/01/21 09:37:58;;;;;;;51.23;21.20;;;;;;;6.94;100.00;99508.34;10366909;28;20208;-61
2021/01/21 09:43:01;;;;;;;45.30;22.23;;;;;;;7.17;100.00;99507.75;10384281;28;20302;-60
2021/01/21 09:48:01;;;;;;;50.53;20.90;;;;;;;7.24;100.00;99503.78;10378785;28;20264;-65
2021/01/21 09:53:02;;;;;;;51.20;22.10;;;;;;;7.26;100.00;99501.00;10371372;28;20752;-57
2021/01/21 09:58:02;;;;;;;41.53;19.43;;;;;;;7.33;100.00;99495.25;10365292;28;20212;-68
2021/01/21 10:03:03;;;;;;;46.60;20.90;;;;;;;7.44;100.00;99487.44;10376783;28;20263;-62
2021/01/21 10:08:04;;;;;;;43.83;20.17;;;;;;;7.61;100.00;99486.31;10377346;28;20188;-58
2021/01/21 10:13:04;;;;;;;37.73;20.03;;;;;;;7.72;100.00;99486.50;10382574;28;20739;-61
2021/01/21 10:18:05;;;;;;;38.73;19.40;;;;;;;7.68;100.00;99489.44;10371992;28;20595;-66
2021/01/21 10:23:05;;;;;;;38.93;19.57;;;;;;;7.60;100.00;99482.00;10369342;28;20268;-62
2021/01/21 10:28:06;;;;;;;41.73;19.60;;;;;;;7.48;100.00;99475.69;10374836;28;20238;-59
2021/01/21 10:33:06;;;;;;;36.93;17.90;;;;;;;7.36;100.00;99473.81;10380661;28;20873;-54
2021/01/21 10:38:07;;;;;;;39.50;18.90;;;;;;;7.26;100.00;99462.06;10375725;28;20192;-61
2021/01/21 10:43:07;;;;;;;42.70;19.10;;;;;;;7.18;100.00;99459.06;10367906;28;20300;-63
2021/01/21 10:48:09;;;;;;;38.57;17.93;;;;;;;7.11;99.10;99452.47;10367632;28;20701;-55
2021/01/21 10:53:10;;;;;;;33.63;16.43;;;;;;;6.98;97.28;99446.22;10380666;28;20653;-66
2021/01/21 10:58:10;;;;;;;36.10;17.77;;;;;;;6.91;98.80;99442.25;10374997;28;20300;-67
2021/01/21 11:03:12;;;;;;;22.50;15.00;;;;;;;6.91;100.00;99434.28;10373214;28;21269;-68
2021/01/21 11:08:12;;;;;;;25.17;13.90;;;;;;;6.79;100.00;99436.75;10360887;28;20198;-63
2021/01/21 11:13:17;;;;;;;27.33;15.03;;;;;;;6.78;100.00;99428.91;10379840;28;20191;-62
2021/01/21 11:18:17;;;;;;;22.00;14.47;;;;;;;6.79;100.00;99425.31;10373294;28;20611;-60
2021/01/21 11:23:19;;;;;;;25.50;14.27;;;;;;;6.79;100.00;99420.84;10379220;28;20301;-61
2021/01/21 11:28:20;;;;;;;29.47;13.77;;;;;;;6.79;100.00;99420.00;10358648;28;20199;-62
2021/01/21 11:33:21;;;;;;;21.40;13.03;;;;;;;6.73;100.00;99431.88;10374246;28;20189;-60
2021/01/21 11:38:21;;;;;;;19.93;12.23;;;;;;;6.75;100.00;99435.28;10377920;28;20188;-60
2021/01/21 11:43:22;;;;;;;25.50;12.33;;;;;;;6.78;99.81;99428.91;10388314;28;20952;-65
2021/01/21 11:48:23;;;;;;;19.23;11.60;;;;;;;6.70;99.97;99426.75;10373608;28;20299;-60
2021/01/21 11:53:23;;;;;;;20.37;12.40;;;;;;;6.65;99.05;99407.59;10373085;28;20184;-59
2021/01/21 11:58:23;;;;;;;27.60;12.43;;;;;;;6.66;99.61;99404.00;10380576;28;20180;-61
2021/01/21 12:03:24;;;;;;;20.03;13.50;;;;;;;6.69;100.00;99403.84;10384893;28;20436;-61
2021/01/21 12:08:24;;;;;;;19.67;12.00;;;;;;;6.63;100.00;99403.38;10379881;28;20181;-62
2021/01/21 12:13:25;;;;;;;18.83;10.77;;;;;;;6.56;99.74;99400.25;10371648;28;20183;-64
2021/01/21 12:18:26;;;;;;;17.57;10.97;;;;;;;6.51;100.00;99410.31;10374133;28;20173;-60
2021/01/21 12:23:27;;;;;;;17.37;10.77;;;;;;;6.49;100.00;99406.88;10386389;28;20232;-65
2021/01/21 12:28:28;;;;;;;18.63;10.70;;;;;;;6.46;99.12;99407.06;10375434;28;20192;-64
2021/01/21 12:33:31;;;;;;;13.87;9.47;;;;;;;6.39;100.00;99401.31;10387133;28;20334;-61
2021/01/21 12:38:31;;;;;;;19.07;9.60;;;;;;;6.37;99.49;99397.03;10405191;28;20177;-64
2021/01/21 12:43:32;;;;;;;17.83;9.90;;;;;;;6.44;99.89;99388.59;10415683;28;20621;-65
2021/01/21 12:48:32;;;;;;;17.63;10.57;;;;;;;6.52;100.00;99377.53;10412956;28;20183;-63
2021/01/21 12:53:33;;;;;;;15.63;9.73;;;;;;;6.58;99.55;99379.81;10413663;28;20180;-64
2021/01/21 12:58:33;;;;;;;19.90;10.20;;;;;;;6.57;98.81;99388.69;10414420;28;20617;-65
2021/01/21 13:03:37;;;;;;;17.27;10.83;;;;;;;6.54;98.56;99388.88;10408293;28;20418;-63
2021/01/21 13:08:38;;;;;;;22.87;11.87;;;;;;;6.51;98.12;99386.44;10397039;28;20169;-61
2021/01/21 13:13:40;;;;;;;29.90;13.90;;;;;;;6.54;98.98;99388.88;10409288;28;20256;-64
2021/01/21 13:18:41;;;;;;;19.17;10.93;;;;;;;6.57;100.00;99377.25;10411241;28;20606;-63
2021/01/21 13:23:41;;;;;;;16.13;8.77;;;;;;;6.58;99.69;99379.81;10410701;28;20235;-61
2021/01/21 13:28:43;;;;;;;19.00;9.20;;;;;;;6.59;100.00;99381.50;10399272;28;20173;-60
2021/01/21 13:33:43;;;;;;;19.30;10.03;;;;;;;6.58;100.00;99378.94;10402097;28;20188;-63
2021/01/21 13:38:44;;;;;;;18.90;9.53;;;;;;;6.59;99.75;99375.34;10410812;28;20172;-64
2021/01/21 13:43:44;;;;;;;14.80;8.93;;;;;;;6.62;100.00;99370.72;10410152;28;20737;-60
2021/01/21 13:48:44;;;;;;;18.77;10.80;;;;;;;6.61;100.00;99362.84;10376858;28;21215;-61
2021/01/21 13:53:45;;;;;;;19.53;11.50;;;;;;;6.57;100.00;99362.19;10364511;28;20591;-61
2021/01/21 13:58:45;;;;;;;16.23;9.83;;;;;;;6.44;97.44;99350.66;10378663;28;20188;-59
2021/01/21 14:03:46;;;;;;;16.93;9.57;;;;;;;6.28;98.84;99347.28;10381269;28;20218;-62
2021/01/21 14:08:46;;;;;;;15.50;8.87;;;;;;;6.13;98.95;99347.28;10377142;28;20222;-67
2021/01/21 14:13:47;;;;;;;15.87;8.27;;;;;;;5.92;98.81;99342.41;10370936;28;20323;-67
2021/01/21 14:18:47;;;;;;;14.30;8.20;;;;;;;5.74;98.25;99352.31;10368896;28;20374;-59
2021/01/21 14:23:48;;;;;;;13.83;7.83;;;;;;;5.53;99.28;99340.38;10378692;28;20262;-63
2021/01/21 14:28:48;;;;;;;15.73;8.20;;;;;;;5.36;98.31;99350.13;10377509;28;20254;-60
2021/01/21 14:33:48;;;;;;;16.40;9.63;;;;;;;5.24;99.27;99344.69;10377248;28;20306;-63
2021/01/21 14:38:49;;;;;;;17.93;9.43;;;;;;;5.10;100.00;99358.72;10363058;28;20187;-66
2021/01/21 14:43:49;;;;;;;15.77;8.50;;;;;;;5.00;100.00;99352.25;10379074;28;20337;-67
2021/01/21 14:48:50;;;;;;;18.23;10.23;;;;;;;4.91;100.00;99336.94;10376819;28;20187;-71
2021/01/21 14:53:50;;;;;;;22.93;12.00;;;;;;;4.73;100.00;99325.59;10381144;28;20436;-60
2021/01/21 14:58:51;;;;;;;24.03;12.40;;;;;;;4.56;100.00;99329.19;10365351;28;20887;-58
2021/01/21 15:03:51;;;;;;;20.03;11.13;;;;;;;4.44;100.00;99332.50;10372556;28;20375;-59
2021/01/21 15:08:51;;;;;;;24.90;14.90;;;;;;;4.39;100.00;99345.09;10357126;28;20528;-58
2021/01/21 15:13:52;;;;;;;20.00;11.73;;;;;;;4.26;99.17;99357.25;10361856;28;20192;-59
2021/01/21 15:18:52;;;;;;;22.70;11.07;;;;;;;4.09;98.33;99365.25;10371048;28;20255;-58
2021/01/21 15:23:53;;;;;;;19.13;10.83;;;;;;;3.89;98.23;99361.00;10365582;28;20340;-58
2021/01/21 15:28:54;;;;;;;24.53;15.60;;;;;;;3.74;100.00;99360.03;10369664;28;20973;-61
2021/01/21 15:33:56;;;;;;;26.43;15.20;;;;;;;3.52;100.00;99335.66;10379125;28;20376;-58
2021/01/21 15:38:57;;;;;;;23.07;13.23;;;;;;;3.53;100.00;99353.19;10372829;28;20197;-59
2021/01/21 15:43:57;;;;;;;28.33;13.90;;;;;;;3.40;100.00;99365.31;10381149;28;20243;-63
2021/01/21 15:48:58;;;;;;;26.03;14.40;;;;;;;3.32;100.00;99375.38;10396960;28;20529;-66
2021/01/21 15:53:58;;;;;;;23.80;14.90;;;;;;;3.21;100.00;99374.13;10402322;28;20211;-60
2021/01/21 15:58:58;;;;;;;27.47;16.03;;;;;;;3.19;100.00;99364.59;10401825;28;20192;-57
2021/01/21 16:03:59;;;;;;;31.30;16.57;;;;;;;3.16;100.00;99370.88;10396366;28;20891;-61
2021/01/21 16:08:59;;;;;;;26.20;16.77;;;;;;;3.11;100.00;99359.72;10388297;28;20177;-60
2021/01/21 16:14:03;;;;;;;34.43;17.40;;;;;;;3.04;100.00;99355.66;10401853;28;20199;-61
2021/01/21 16:19:04;;;;;;;31.53;16.67;;;;;;;2.97;100.00;99354.25;10389283;28;20221;-61
2021/01/21 16:24:05;;;;;;;34.70;18.63;;;;;;;2.90;100.00;99351.06;10373399;28;20756;-60
2021/01/21 16:29:06;;;;;;;64.30;34.60;;;;;;;2.82;100.00;99345.31;10373364;28;20192;-59
2021/01/21 16:34:07;;;;;;;48.73;21.33;;;;;;;2.84;100.00;99358.41;10374921;28;20185;-58
2021/01/21 16:39:08;;;;;;;39.77;20.13;;;;;;;2.73;100.00;99353.66;10392436;28;20236;-61
2021/01/21 16:44:08;;;;;;;57.43;32.37;;;;;;;2.67;100.00;99358.34;10372377;28;20212;-59
2021/01/21 16:49:26;;;;;;;82.27;29.93;;;;;;;2.67;100.00;99350.44;10368319;28;20195;-58
2021/01/21 16:54:26;;;;;;;54.47;29.67;;;;;;;2.67;100.00;99351.31;10370444;28;20579;-59
2021/01/21 16:59:27;;;;;;;36.43;20.43;;;;;;;2.57;100.00;99355.31;10380699;28;20204;-59
2021/01/21 17:04:28;;;;;;;41.93;20.27;;;;;;;2.50;100.00;99354.75;10385921;28;20689;-58
2021/01/21 17:09:28;;;;;;;38.07;18.97;;;;;;;2.47;100.00;99360.16;10364609;28;20195;-61
2021/01/21 17:14:29;;;;;;;33.43;17.77;;;;;;;2.47;100.00;99354.88;10369206;28;20192;-62
2021/01/21 17:19:30;;;;;;;37.37;19.13;;;;;;;2.43;100.00;99353.31;10373441;28;20642;-60
2021/01/21 17:24:30;;;;;;;41.37;20.00;;;;;;;2.45;100.00;99348.84;10383506;28;20356;-64
2021/01/21 17:29:30;;;;;;;40.87;21.47;;;;;;;2.48;100.00;99345.22;10409660;28;20204;-57
2021/01/21 17:34:31;;;;;;;38.80;19.37;;;;;;;2.47;100.00;99349.63;10401504;28;20187;-59
2021/01/21 17:39:32;;;;;;;36.20;18.80;;;;;;;2.43;100.00;99348.06;10394672;28;21068;-57
2021/01/21 17:44:33;;;;;;;37.37;19.90;;;;;;;2.37;100.00;99358.88;10388948;28;20217;-63
2021/01/21 17:52:44;;;;;;;38.57;19.90;;;;;;;2.21;100.00;99347.34;10530958;27;20537;-60
2021/01/21 17:57:44;;;;;;;41.23;19.33;;;;;;;2.09;100.00;99342.63;10516058;28;20193;-56
2021/01/21 18:02:45;;;;;;;35.00;20.17;;;;;;;2.02;100.00;99346.47;10512246;28;20167;-55
2021/01/21 18:07:45;;;;;;;35.40;19.47;;;;;;;2.00;100.00;99337.78;10524906;28;20993;-57
2021/01/21 18:12:46;;;;;;;36.93;18.93;;;;;;;1.96;100.00;99317.81;10524681;28;20240;-56
2021/01/21 18:17:47;;;;;;;40.43;19.37;;;;;;;2.11;100.00;99330.25;10524461;28;20166;-59
2021/01/21 18:22:47;;;;;;;34.27;18.60;;;;;;;2.16;100.00;99341.44;10489337;28;20282;-55
2021/01/21 18:27:48;;;;;;;40.13;20.50;;;;;;;2.18;100.00;99332.53;10517014;28;20278;-58
2021/01/21 18:32:49;;;;;;;43.77;19.90;;;;;;;2.20;100.00;99314.03;10523554;28;20194;-58
2021/01/21 18:37:49;;;;;;;48.93;22.37;;;;;;;2.38;100.00;99318.47;10505823;28;20166;-57
2021/01/21 18:42:50;;;;;;;41.67;21.23;;;;;;;2.45;100.00;99330.41;10514438;28;20175;-63
2021/01/21 18:47:50;;;;;;;40.90;20.23;;;;;;;2.48;100.00;99332.91;10507933;28;20640;-60
2021/01/21 18:52:51;;;;;;;39.50;19.67;;;;;;;2.54;100.00;99324.69;10480447;28;20156;-65
2021/01/21 18:57:52;;;;;;;36.80;19.43;;;;;;;2.50;100.00;99304.72;10472801;28;20183;-67
2021/01/21 19:02:52;;;;;;;41.30;20.93;;;;;;;2.61;100.00;99303.34;10425979;28;20630;-64
2021/01/21 19:07:53;;;;;;;37.17;20.00;;;;;;;2.62;100.00;99311.19;10435056;28;20179;-67
2021/01/21 19:13:01;;;;;;;30.60;18.03;;;;;;;2.63;100.00;99322.56;10448454;28;20168;-64
2021/01/21 19:18:02;;;;;;;35.77;18.27;;;;;;;2.64;100.00;99319.03;10291693;28;20264;-67
2021/01/21 19:23:02;;;;;;;38.90;18.77;;;;;;;2.70;100.00;99323.97;10355639;28;20733;-60
2021/01/21 19:28:03;;;;;;;36.00;18.47;;;;;;;2.70;100.00;99323.97;10355415;28;20249;-62
2021/01/21 19:33:04;;;;;;;34.27;17.47;;;;;;;2.71;100.00;99315.16;10354588;28;20181;-69
2021/01/21 19:38:04;;;;;;;37.93;18.37;;;;;;;2.72;100.00;99311.59;10347372;28;20614;-60
2021/01/21 19:43:05;;;;;;;38.57;18.23;;;;;;;2.49;100.00;99273.19;10334533;28;20228;-68
2021/01/21 19:48:08;;;;;;;36.23;18.97;;;;;;;2.72;100.00;99290.50;10332981;28;20237;-69
2021/01/21 19:53:08;;;;;;;38.60;18.80;;;;;;;2.72;100.00;99296.63;10322182;28;20748;-64
2021/01/21 19:58:09;;;;;;;38.07;19.70;;;;;;;2.75;100.00;99304.41;10328711;28;20203;-65
2021/01/21 20:03:09;;;;;;;37.63;18.73;;;;;;;2.72;100.00;99301.06;10335542;28;20892;-62
2021/01/21 20:08:09;;;;;;;34.50;16.93;;;;;;;2.74;100.00;99300.06;10329786;28;20280;-65
2021/01/21 20:13:10;;;;;;;32.90;19.40;;;;;;;2.73;100.00;99303.63;10324541;28;20391;-58
2021/01/21 20:18:10;;;;;;;34.13;18.30;;;;;;;2.67;100.00;99300.41;10319097;28;20923;-58
2021/01/21 20:23:11;;;;;;;47.70;21.70;;;;;;;2.57;100.00;99285.97;10340732;28;20272;-61
2021/01/21 20:28:12;;;;;;;54.07;26.23;;;;;;;2.46;100.00;99284.72;10401146;28;20221;-62
2021/01/21 20:33:12;;;;;;;43.87;21.93;;;;;;;2.35;100.00;99291.44;10406210;28;20188;-59
2021/01/21 20:38:13;;;;;;;39.17;20.57;;;;;;;2.25;100.00;99280.47;10374752;28;20188;-59
2021/01/21 20:43:13;;;;;;;40.77;20.00;;;;;;;2.26;100.00;99292.72;10403819;28;20493;-59
2021/01/21 20:48:14;;;;;;;39.70;21.43;;;;;;;2.27;100.00;99291.81;10430995;28;20231;-58
2021/01/21 20:53:14;;;;;;;53.50;22.50;;;;;;;2.28;100.00;99296.16;10449062;28;20180;-59
2021/01/21 20:58:15;;;;;;;54.33;24.77;;;;;;;2.27;100.00;99291.81;10437969;28;20188;-59
2021/01/21 21:03:16;;;;;;;45.17;23.27;;;;;;;2.21;100.00;99292.06;10437102;28;20191;-60
2021/01/21 21:08:16;;;;;;;49.80;23.33;;;;;;;2.11;100.00;99288.16;10448959;28;20228;-59
2021/01/21 21:13:17;;;;;;;41.77;23.27;;;;;;;2.03;100.00;99274.53;10442738;28;20180;-59
2021/01/21 21:18:18;;;;;;;55.60;25.47;;;;;;;1.95;100.00;99272.22;10442260;28;20188;-58
2021/01/21 21:23:18;;;;;;;52.57;25.53;;;;;;;1.84;100.00;99284.16;10432316;28;20253;-59
2021/01/21 21:28:19;;;;;;;54.90;24.93;;;;;;;1.67;100.00;99293.69;10426378;28;20229;-59
2021/01/21 21:33:19;;;;;;;56.47;26.37;;;;;;;1.54;100.00;99274.13;10448049;28;20180;-59
2021/01/21 21:38:20;;;;;;;68.57;25.97;;;;;;;1.56;100.00;99274.03;10447856;28;20518;-60
2021/01/21 21:43:21;;;;;;;48.13;24.57;;;;;;;1.50;100.00;99267.28;10436379;28;20676;-58
2021/01/21 21:48:22;;;;;;;48.73;22.63;;;;;;;1.45;100.00;99274.50;10436713;28;20234;-59
2021/01/21 21:53:22;;;;;;;41.27;18.97;;;;;;;1.42;100.00;99267.63;10448159;28;20674;-60
2021/01/21 21:58:23;;;;;;;43.13;18.87;;;;;;;1.45;100.00;99266.59;10447296;28;20180;-59
2021/01/21 22:03:23;;;;;;;37.73;18.13;;;;;;;1.51;100.00;99273.38;10443773;28;20217;-60
2021/01/21 22:08:24;;;;;;;39.07;20.07;;;;;;;1.53;100.00;99271.53;10430783;28;20212;-59
2021/01/21 22:13:24;;;;;;;34.17;18.33;;;;;;;1.56;100.00;99268.78;10443818;28;20180;-57
2021/01/21 22:18:25;;;;;;;38.20;18.30;;;;;;;1.55;100.00;99281.06;10429563;28;20270;-57
2021/01/21 22:23:25;;;;;;;37.27;18.63;;;;;;;1.48;100.00;99274.38;10447154;28;20184;-58
2021/01/21 22:28:26;;;;;;;46.10;20.03;;;;;;;1.41;100.00;99271.16;10435510;28;20595;-58
2021/01/21 22:33:26;;;;;;;55.07;20.30;;;;;;;1.39;100.00;99269.53;10436074;28;20187;-57
2021/01/21 22:38:26;;;;;;;44.23;19.07;;;;;;;1.43;100.00;99273.72;10452471;28;20180;-57
2021/01/21 22:43:27;;;;;;;37.27;17.87;;;;;;;1.45;100.00;99269.22;10455065;28;20183;-59
2021/01/21 22:48:27;;;;;;;129.77;34.77;;;;;;;1.48;100.00;99271.75;10450418;28;20235;-58
2021/01/21 22:53:28;;;;;;;55.37;19.57;;;;;;;1.44;100.00;99259.66;10438434;28;20298;-58